Time;durP1;ratioP1;P1;durP2;ratioP2;P2;SDS_P1;SDS_P2;PMS_P1;PMS_P2;Temp;Humidity;BMP_temperature;BMP_pressure;BME280_temperature;BME280_humidity;BME280_pressure;Samples;Min_cycle;Max_cycle;Signal;HPM_P1;HPM_P2
2022/11/17 00:00:12;;;;;;;13.40;10.18;;;6.70;94.70;;;;;;5034452;28;20049;-64
2022/11/17 00:02:40;;;;;;;12.10;9.48;;;7.80;95.00;;;;;;5035257;28;20045;-64
2022/11/17 00:05:08;;;;;;;11.93;9.98;;;8.30;95.00;;;;;;5034813;28;20053;-64
2022/11/17 00:07:35;;;;;;;14.40;9.68;;;;;;;;;;5034178;28;20076;-64
2022/11/17 00:10:01;;;;;;;11.82;9.52;;;7.30;94.70;;;;;;5034573;28;20410;-64
2022/11/17 00:15:13;;;;;;;14.05;9.45;;;;;;;;;;5035057;28;20049;-64
2022/11/17 00:17:41;;;;;;;12.55;9.57;;;6.90;94.80;;;;;;5035149;28;20049;-64
2022/11/17 00:22:54;;;;;;;12.30;9.05;;;;;;;;;;5034416;28;20478;-64
2022/11/17 00:25:21;;;;;;;11.90;9.00;;;7.80;94.30;;;;;;5034621;28;20494;-64
2022/11/17 00:27:48;;;;;;;14.70;9.15;;;8.70;95.10;;;;;;5034362;28;20049;-64
2022/11/17 00:34:03;;;;;;;15.25;9.15;;;7.90;94.90;;;;;;5034363;28;20049;-64
2022/11/17 00:35:51;;;;;;;13.40;8.98;;;7.30;94.50;;;;;;5034581;28;20053;-65
2022/11/17 00:38:18;;;;;;;11.75;9.00;;;;;;;;;;5034892;28;20065;-64
2022/11/17 00:40:45;;;;;;;11.48;8.82;;;;;;;;;;5033969;28;20053;-65
2022/11/17 00:43:12;;;;;;;14.80;8.10;;;6.40;94.60;;;;;;5034085;28;20060;-65
2022/11/17 00:45:39;;;;;;;12.77;8.90;;;7.70;95.00;;;;;;5034449;28;20041;-65
2022/11/17 00:48:07;;;;;;;12.95;9.27;;;7.50;86.80;;;;;;5034458;28;20052;-65
2022/11/17 00:50:34;;;;;;;15.80;8.60;;;7.70;92.10;;;;;;5034077;28;20053;-65
2022/11/17 00:53:00;;;;;;;12.27;8.88;;;7.60;95.00;;;;;;5033686;28;20517;-65
2022/11/17 00:55:28;;;;;;;13.25;8.57;;;6.80;92.70;;;;;;5034064;28;20061;-65
2022/11/17 00:57:56;;;;;;;11.45;9.00;;;7.70;94.80;;;;;;5034427;28;20045;-65
2022/11/17 01:00:22;;;;;;;12.57;8.75;;;8.10;94.80;;;;;;5033653;28;20045;-65
2022/11/17 01:02:49;;;;;;;11.80;8.20;;;8.70;90.40;;;;;;5033589;28;20052;-65
2022/11/17 01:05:17;;;;;;;11.20;8.82;;;6.80;94.60;;;;;;5034330;28;20060;-65
2022/11/17 01:07:45;;;;;;;11.15;7.85;;;7.90;94.90;;;;;;5034305;28;20053;-65
2022/11/17 01:10:13;;;;;;;14.32;9.48;;;7.20;84.70;;;;;;5033408;28;20049;-65
2022/11/17 01:12:39;;;;;;;10.30;7.78;;;7.70;94.80;;;;;;5034130;28;20055;-65
2022/11/17 01:15:07;;;;;;;12.68;8.55;;;7.50;84.90;;;;;;5033779;28;20063;-65
2022/11/17 01:17:34;;;;;;;10.25;8.13;;;7.70;94.80;;;;;;5033705;28;20132;-65
2022/11/17 01:20:01;;;;;;;13.90;8.70;;;;;;;;;;5033471;28;20129;-65
2022/11/17 01:22:29;;;;;;;12.50;8.82;;;8.10;94.90;;;;;;5033817;28;20426;-64
2022/11/17 01:24:55;;;;;;;13.85;8.82;;;7.50;94.70;;;;;;5033421;28;20049;-65
2022/11/17 01:27:22;;;;;;;15.02;8.23;;;7.50;94.00;;;;;;5033557;28;20046;-65
2022/11/17 01:29:49;;;;;;;15.65;9.20;;;7.60;91.00;;;;;;5033412;28;20418;-65
2022/11/17 01:32:15;;;;;;;14.77;9.23;;;7.60;94.80;;;;;;5033122;28;20054;-65
2022/11/17 01:34:42;;;;;;;12.32;8.55;;;7.50;94.90;;;;;;5033740;28;20041;-65
2022/11/17 01:37:18;;;;;;;13.13;9.02;;;;;;;;;;5033566;28;20054;-64
2022/11/17 01:39:47;;;;;;;13.27;9.20;;;7.60;90.60;;;;;;5033227;28;20490;-64
2022/11/17 01:42:14;;;;;;;11.65;8.93;;;7.70;91.80;;;;;;5032829;28;20045;-64
2022/11/17 01:44:57;;;;;;;13.30;9.02;;;7.40;85.00;;;;;;5033267;28;20056;-64
2022/11/17 01:47:33;;;;;;;12.38;8.98;;;7.40;85.00;;;;;;5031797;28;20046;-64
2022/11/17 01:50:00;;;;;;;12.05;8.50;;;7.60;86.30;;;;;;5032636;28;20049;-64
2022/11/17 01:52:27;;;;;;;11.85;8.80;;;;;;;;;;5033261;28;20155;-64
2022/11/17 01:54:56;;;;;;;12.55;8.77;;;6.80;94.80;;;;;;5033096;28;20055;-64
2022/11/17 01:57:24;;;;;;;12.88;9.38;;;7.40;94.80;;;;;;5033101;28;20053;-64
2022/11/17 01:59:52;;;;;;;12.25;8.30;;;7.40;94.90;;;;;;5032698;28;20512;-64
2022/11/17 02:02:19;;;;;;;11.25;8.50;;;7.40;84.80;;;;;;5032571;28;20052;-64
2022/11/17 02:04:48;;;;;;;12.88;8.40;;;;;;;;;;5032371;28;20402;-64
2022/11/17 02:07:17;;;;;;;11.02;8.15;;;7.50;94.70;;;;;;5032573;28;20053;-64
2022/11/17 02:09:44;;;;;;;10.60;7.95;;;;;;;;;;5032225;28;20052;-64
2022/11/17 02:12:13;;;;;;;12.52;8.18;;;8.30;94.90;;;;;;5032497;28;20049;-64
2022/11/17 02:14:39;;;;;;;11.50;8.07;;;7.60;94.70;;;;;;5032955;28;20045;-64
2022/11/17 02:17:06;;;;;;;13.43;8.60;;;;;;;;;;5032791;28;20075;-64
2022/11/17 02:19:35;;;;;;;10.85;7.93;;;7.20;94.60;;;;;;5032371;28;20053;-64
2022/11/17 02:22:18;;;;;;;11.57;8.20;;;7.40;84.70;;;;;;5031919;28;20140;-64
2022/11/17 02:25:16;;;;;;;10.38;7.80;;;8.40;94.90;;;;;;5032717;28;20055;-64
2022/11/17 02:27:52;;;;;;;11.32;8.05;;;7.40;84.60;;;;;;4993942;28;20050;-64
2022/11/17 02:30:19;;;;;;;11.98;7.85;;;6.90;94.50;;;;;;5031824;28;20056;-64
2022/11/17 02:32:53;;;;;;;11.65;7.72;;;7.40;84.60;;;;;;5032328;28;20046;-64
2022/11/17 02:35:23;;;;;;;14.57;8.13;;;7.80;94.70;;;;;;5032435;28;20549;-64
2022/11/17 02:37:53;;;;;;;13.60;7.88;;;8.50;94.80;;;;;;5032486;28;20417;-64
2022/11/17 02:40:22;;;;;;;10.65;7.95;;;6.60;94.40;;;;;;5031887;28;20128;-64
2022/11/17 02:45:37;;;;;;;12.35;8.07;;;7.60;94.80;;;;;;5032437;28;20053;-64
2022/11/17 02:48:05;;;;;;;12.52;7.75;;;6.80;94.60;;;;;;5032309;28;20049;-65
2022/11/17 02:50:32;;;;;;;10.60;7.75;;;7.60;94.70;;;;;;5031657;28;20050;-64
2022/11/17 02:53:01;;;;;;;11.52;8.18;;;8.40;92.30;;;;;;5032053;28;20045;-65
2022/11/17 02:55:32;;;;;;;10.73;8.05;;;8.00;94.70;;;;;;5032163;28;20059;-65
2022/11/17 02:58:00;;;;;;;12.35;8.23;;;7.40;84.50;;;;;;5032248;28;20128;-65
2022/11/17 03:00:27;;;;;;;9.50;8.00;;;7.60;94.60;;;;;;5031299;28;20495;-65
2022/11/17 03:03:01;;;;;;;12.70;8.68;;;8.20;85.00;;;;;;5032096;28;20053;-65
2022/11/17 03:05:31;;;;;;;11.27;8.23;;;7.70;93.10;;;;;;5031964;28;20049;-65
2022/11/17 03:08:06;;;;;;;11.60;8.15;;;7.60;92.00;;;;;;5031738;28;20053;-65
2022/11/17 03:10:38;;;;;;;10.18;7.88;;;7.80;94.60;;;;;;5031429;28;20049;-65
2022/11/17 03:13:09;;;;;;;12.55;8.15;;;7.40;84.50;;;;;;5032043;28;20091;-65
2022/11/17 03:15:38;;;;;;;11.23;8.48;;;6.80;84.10;;;;;;5031916;28;20112;-65
2022/11/17 03:18:08;;;;;;;11.57;8.32;;;7.50;94.50;;;;;;5031432;28;20055;-65
2022/11/17 03:20:39;;;;;;;10.13;8.10;;;6.90;94.50;;;;;;5031337;28;20058;-64
2022/11/17 03:23:08;;;;;;;12.85;8.52;;;7.30;91.00;;;;;;5031328;28;20049;-65
2022/11/17 03:25:36;;;;;;;11.15;8.18;;;;;;;;;;5031746;28;20053;-65
2022/11/17 03:28:04;;;;;;;12.88;8.70;;;8.40;95.20;;;;;;5031806;28;20045;-65
2022/11/17 03:30:33;;;;;;;12.23;8.82;;;7.00;84.60;;;;;;5030862;28;20144;-65
2022/11/17 03:33:03;;;;;;;11.90;9.10;;;6.00;94.50;;;;;;5031270;28;20049;-65
2022/11/17 03:35:32;;;;;;;13.60;9.15;;;7.30;84.90;;;;;;5031859;28;20041;-65
2022/11/17 03:38:00;;;;;;;12.95;9.45;;;7.10;86.30;;;;;;5031843;28;20052;-65
2022/11/17 03:40:28;;;;;;;14.45;9.77;;;7.30;90.00;;;;;;5030996;28;20049;-66
2022/11/17 03:42:56;;;;;;;13.90;10.23;;;7.40;85.70;;;;;;5031717;28;20071;-66
2022/11/17 03:45:24;;;;;;;12.43;9.35;;;6.60;94.90;;;;;;5031068;28;20524;-66
2022/11/17 03:47:56;;;;;;;14.10;10.07;;;7.20;93.30;;;;;;5031675;28;20053;-66
2022/11/17 03:50:25;;;;;;;15.63;10.82;;;5.70;88.00;;;;;;5031067;28;20049;-66
2022/11/17 03:52:51;;;;;;;12.35;9.88;;;7.80;95.30;;;;;;5031572;28;20056;-66
2022/11/17 03:55:18;;;;;;;16.17;10.15;;;7.00;95.30;;;;;;5031314;28;20045;-66
2022/11/17 03:57:48;;;;;;;12.98;10.25;;;6.90;85.60;;;;;;5031528;28;20426;-66
2022/11/17 04:00:16;;;;;;;13.13;9.40;;;6.60;95.10;;;;;;5030958;28;20061;-66
2022/11/17 04:02:43;;;;;;;13.95;10.18;;;7.00;95.40;;;;;;5031642;28;20056;-66
2022/11/17 04:05:11;;;;;;;14.55;10.55;;;7.10;95.20;;;;;;5031332;28;20056;-66
2022/11/17 04:07:40;;;;;;;16.67;10.88;;;6.90;95.40;;;;;;5031054;28;20163;-66
2022/11/17 04:10:07;;;;;;;15.95;10.07;;;6.90;86.00;;;;;;5030878;28;20056;-65
2022/11/17 04:18:03;;;;;;;12.75;9.80;;;6.50;95.50;;;;;;5031214;28;20045;-65
2022/11/17 04:20:34;;;;;;;14.55;10.30;;;6.70;86.00;;;;;;5030773;28;20054;-65
2022/11/17 04:23:07;;;;;;;14.15;10.30;;;6.70;95.50;;;;;;5031169;28;20061;-65
2022/11/17 04:28:37;;;;;;;13.63;9.88;;;6.60;95.60;;;;;;5031384;28;20041;-65
2022/11/17 04:31:08;;;;;;;12.50;8.98;;;6.50;95.70;;;;;;5034107;28;20542;-64
2022/11/17 04:33:35;;;;;;;12.90;9.02;;;6.70;95.80;;;;;;5034789;28;20053;-65
2022/11/17 04:36:04;;;;;;;13.68;9.10;;;6.60;86.30;;;;;;5034694;28;20047;-65
2022/11/17 04:38:31;;;;;;;15.32;8.95;;;;;;;;;;5034758;28;20059;-65
2022/11/17 04:43:46;;;;;;;12.23;9.35;;;7.40;96.00;;;;;;5034432;28;20136;-65
2022/11/17 04:46:13;;;;;;;12.98;9.07;;;;;;;;;;5034325;28;20049;-65
2022/11/17 04:48:39;;;;;;;10.70;8.75;;;6.70;96.00;;;;;;5034654;28;20056;-65
2022/11/17 04:51:07;;;;;;;12.23;8.98;;;6.30;95.90;;;;;;5033718;28;20068;-65
2022/11/17 04:53:34;;;;;;;12.77;8.80;;;6.50;96.00;;;;;;5034374;28;20053;-65
2022/11/17 04:56:01;;;;;;;11.82;8.95;;;6.60;90.90;;;;;;5034194;28;20048;-65
2022/11/17 04:58:28;;;;;;;11.82;8.55;;;;;;;;;;5034354;28;20495;-65
2022/11/17 05:00:55;;;;;;;12.88;8.80;;;;;;;;;;5034099;28;20053;-65
2022/11/17 05:03:22;;;;;;;9.82;7.75;;;;;;;;;;5034170;28;20120;-65
2022/11/17 05:05:49;;;;;;;11.70;8.20;;;;;;;;;;5033895;28;20067;-65
2022/11/17 05:08:17;;;;;;;13.10;8.18;;;7.80;90.10;;;;;;5034235;28;20055;-65
2022/11/17 05:13:28;;;;;;;9.55;6.97;;;6.40;96.10;;;;;;5034239;28;20049;-65
2022/11/17 05:18:41;;;;;;;9.32;7.05;;;7.10;96.40;;;;;;5033852;28;20049;-65
2022/11/17 05:21:09;;;;;;;8.85;6.85;;;6.40;96.20;;;;;;5033110;28;20574;-65
2022/11/17 05:23:54;;;;;;;9.75;7.97;;;5.50;95.00;;;;;;5033896;28;20051;-65
2022/11/17 05:26:21;;;;;;;9.55;7.38;;;;;;;;;;5033613;28;20509;-65
2022/11/17 05:28:49;;;;;;;8.93;6.40;;;;;;;;;;5033684;28;20418;-65
2022/11/17 05:31:16;;;;;;;8.30;6.78;;;;;;;;;;5033142;28;20758;-65
2022/11/17 05:33:43;;;;;;;10.15;7.20;;;;;;;;;;5033445;28;20487;-65
2022/11/17 05:36:10;;;;;;;9.15;6.85;;;;;;;;;;5033462;28;20147;-65
2022/11/17 05:38:38;;;;;;;9.05;6.38;;;5.60;96.20;;;;;;5033739;28;20057;-65
2022/11/17 05:41:05;;;;;;;9.68;6.97;;;5.50;96.30;;;;;;5032987;28;20051;-65
2022/11/17 05:43:32;;;;;;;9.43;6.22;;;;;;;;;;5032843;28;20128;-65
2022/11/17 05:45:59;;;;;;;12.00;7.20;;;6.30;96.50;;;;;;5033094;28;20155;-65
2022/11/17 05:48:26;;;;;;;8.35;6.63;;;5.90;96.30;;;;;;5033368;28;20053;-65
2022/11/17 05:50:53;;;;;;;8.82;6.93;;;6.10;90.60;;;;;;5033244;28;20049;-65
2022/11/17 05:53:20;;;;;;;9.35;6.55;;;;;;;;;;5033493;28;20057;-65
2022/11/17 05:55:49;;;;;;;7.47;6.05;;;6.40;90.80;;;;;;5032923;28;20048;-65
2022/11/17 05:58:18;;;;;;;7.50;6.18;;;6.00;96.40;;;;;;5033163;28;20053;-65
2022/11/17 06:00:45;;;;;;;8.43;6.28;;;;;;;;;;5032576;28;20056;-65
2022/11/17 06:03:13;;;;;;;8.02;6.47;;;5.60;96.30;;;;;;5032913;28;20075;-65
2022/11/17 06:05:40;;;;;;;8.23;6.35;;;;;;;;;;5032923;28;20410;-65
2022/11/17 06:08:07;;;;;;;8.25;6.18;;;6.20;93.10;;;;;;5033144;28;20053;-65
2022/11/17 06:10:34;;;;;;;7.90;6.35;;;5.10;96.10;;;;;;5032605;28;20053;-65
2022/11/17 06:13:02;;;;;;;8.18;6.32;;;6.20;96.50;;;;;;5032890;28;20076;-65
2022/11/17 06:15:29;;;;;;;9.52;6.70;;;;;;;;;;5032877;28;20049;-65
2022/11/17 06:17:57;;;;;;;9.43;6.22;;;6.10;95.40;;;;;;5032997;28;20053;-65
2022/11/17 06:20:26;;;;;;;9.93;6.22;;;6.20;96.10;;;;;;5031967;28;20513;-65
2022/11/17 06:22:54;;;;;;;9.02;6.53;;;;;;;;;;5032744;28;20053;-65
2022/11/17 06:25:20;;;;;;;8.65;6.45;;;6.00;96.60;;;;;;5032685;28;20050;-65
2022/11/17 06:27:47;;;;;;;9.35;6.65;;;;;;;;;;5032413;28;20252;-65
2022/11/17 06:30:15;;;;;;;8.25;6.18;;;4.90;96.40;;;;;;5032293;28;20049;-65
2022/11/17 06:32:43;;;;;;;9.07;6.43;;;6.20;96.60;;;;;;5032576;28;20053;-65
2022/11/17 06:35:10;;;;;;;9.27;6.00;;;6.00;87.70;;;;;;5032539;28;20056;-65
2022/11/17 06:37:36;;;;;;;11.45;6.03;;;6.90;96.70;;;;;;5032455;28;20495;-65
2022/11/17 06:40:03;;;;;;;9.18;5.75;;;6.10;96.50;;;;;;5031771;28;20132;-65
2022/11/17 06:45:16;;;;;;;8.93;5.85;;;6.00;87.80;;;;;;5032427;28;20069;-65
2022/11/17 06:47:43;;;;;;;7.03;5.65;;;6.10;96.70;;;;;;5032324;28;20045;-65
2022/11/17 06:50:10;;;;;;;8.43;5.57;;;6.50;96.60;;;;;;5031779;28;20055;-65
2022/11/17 06:52:37;;;;;;;8.18;5.55;;;5.90;88.00;;;;;;5030610;28;20056;-65
2022/11/17 06:55:04;;;;;;;9.10;5.93;;;5.80;96.60;;;;;;5031982;28;20041;-65
2022/11/17 06:57:31;;;;;;;9.38;6.07;;;6.10;96.50;;;;;;5031994;28;20550;-65
2022/11/17 06:59:58;;;;;;;7.85;5.85;;;;;;;;;;5031699;28;20059;-65
2022/11/17 07:02:26;;;;;;;6.93;5.22;;;6.10;92.50;;;;;;5032168;28;20415;-65
2022/11/17 07:04:53;;;;;;;7.13;5.20;;;;;;;;;;5031439;28;20075;-65
2022/11/17 07:07:20;;;;;;;6.90;5.10;;;5.70;96.50;;;;;;5031835;28;20053;-65
2022/11/17 07:09:47;;;;;;;8.15;5.25;;;;;;;;;;5031975;28;20045;-65
2022/11/17 07:12:14;;;;;;;8.07;5.05;;;5.60;96.60;;;;;;5031645;28;20052;-65
2022/11/17 07:14:41;;;;;;;8.07;5.38;;;;;;;;;;5031590;28;20438;-65
2022/11/17 07:17:08;;;;;;;6.28;4.60;;;6.10;96.60;;;;;;5030326;28;20422;-65
2022/11/17 07:19:36;;;;;;;7.78;5.60;;;5.90;91.10;;;;;;5031860;28;20049;-65
2022/11/17 07:22:03;;;;;;;9.30;5.18;;;5.70;90.00;;;;;;5030182;28;20061;-65
2022/11/17 07:24:30;;;;;;;6.72;5.15;;;5.70;96.60;;;;;;5030837;28;20057;-66
2022/11/17 07:26:57;;;;;;;7.05;4.78;;;;;;;;;;5031549;28;20081;-66
2022/11/17 07:29:24;;;;;;;6.38;4.53;;;6.00;96.70;;;;;;5031901;28;20072;-66
2022/11/17 07:31:51;;;;;;;8.20;5.43;;;6.60;96.70;;;;;;5031287;28;20049;-66
2022/11/17 07:34:18;;;;;;;6.25;4.45;;;;;;;;;;5031726;28;20095;-66
2022/11/17 07:36:46;;;;;;;6.00;4.60;;;5.90;88.30;;;;;;5030760;28;20053;-65
2022/11/17 07:39:14;;;;;;;6.38;4.53;;;6.20;96.70;;;;;;5031524;28;20056;-65
2022/11/17 07:41:41;;;;;;;7.20;4.70;;;6.20;96.80;;;;;;5031537;28;20085;-65
2022/11/17 07:44:08;;;;;;;8.30;4.43;;;;;;;;;;5031747;28;20053;-65
2022/11/17 07:46:35;;;;;;;6.93;4.40;;;6.10;96.60;;;;;;5031192;28;20068;-65
2022/11/17 07:49:02;;;;;;;7.07;4.75;;;;;;;;;;5031264;28;20049;-65
2022/11/17 07:51:29;;;;;;;5.88;4.40;;;;;;;;;;5031370;28;20052;-65
2022/11/17 07:53:57;;;;;;;6.72;4.10;;;6.00;95.30;;;;;;5031559;28;20072;-65
2022/11/17 07:56:24;;;;;;;7.43;4.38;;;6.00;94.00;;;;;;5031227;28;20045;-65
2022/11/17 07:58:51;;;;;;;5.63;4.13;;;;;;;;;;5031100;28;20050;-66
2022/11/17 08:01:18;;;;;;;7.10;4.78;;;;;;;;;;5031119;28;20064;-66
2022/11/17 08:03:45;;;;;;;5.93;4.45;;;6.30;96.80;;;;;;5032313;28;20152;-66
2022/11/17 08:06:12;;;;;;;6.28;4.25;;;6.90;97.00;;;;;;5034085;28;20056;-66
2022/11/17 08:08:39;;;;;;;5.93;4.50;;;;;;;;;;5034992;28;20477;-66
2022/11/17 08:11:08;;;;;;;7.20;4.10;;;5.70;96.60;;;;;;5034626;28;20045;-65
2022/11/17 08:13:35;;;;;;;6.00;4.22;;;;;;;;;;5035305;28;20411;-66
2022/11/17 08:16:02;;;;;;;7.30;4.63;;;5.70;96.60;;;;;;5034912;28;20495;-66
2022/11/17 08:18:29;;;;;;;6.65;4.70;;;;;;;;;;5023421;28;20060;-65
2022/11/17 08:21:02;;;;;;;6.38;4.88;;;5.80;96.70;;;;;;5014581;28;20482;-66
2022/11/17 08:23:29;;;;;;;7.00;5.05;;;;;;;;;;5015011;28;20095;-65
2022/11/17 08:25:56;;;;;;;6.63;4.57;;;;;;;;;;5014684;28;20057;-65
2022/11/17 08:28:24;;;;;;;7.40;5.28;;;6.00;88.40;;;;;;5013063;28;20388;-65
2022/11/17 08:30:51;;;;;;;7.60;4.85;;;;;;;;;;5013824;28;20060;-65
2022/11/17 08:33:18;;;;;;;5.93;4.97;;;5.10;96.50;;;;;;5014303;28;20050;-65
2022/11/17 08:35:44;;;;;;;6.80;4.60;;;6.10;96.60;;;;;;5013965;28;20410;-66
2022/11/17 08:38:14;;;;;;;5.80;4.43;;;;;;;;;;5012671;28;20072;-65
2022/11/17 08:40:40;;;;;;;6.60;5.13;;;5.70;96.70;;;;;;5013701;28;20050;-66
2022/11/17 08:43:07;;;;;;;9.10;5.18;;;;;;;;;;5013882;28;20140;-66
2022/11/17 08:45:35;;;;;;;7.10;5.20;;;6.70;96.90;;;;;;5012571;28;20479;-65
2022/11/17 08:48:02;;;;;;;6.35;5.03;;;6.00;96.50;;;;;;5013803;28;20056;-65
2022/11/17 08:50:29;;;;;;;7.38;5.35;;;;;;;;;;5013305;28;20053;-65
2022/11/17 08:52:56;;;;;;;7.25;5.07;;;5.90;96.60;;;;;;5013746;28;20056;-65
2022/11/17 08:55:24;;;;;;;6.90;5.03;;;;;;;;;;5013896;28;20062;-65
2022/11/17 08:57:52;;;;;;;7.82;4.82;;;;;;;;;;5012526;28;20085;-65
2022/11/17 09:00:20;;;;;;;8.40;4.80;;;6.70;96.80;;;;;;5013522;28;20049;-65
2022/11/17 09:02:48;;;;;;;6.47;5.10;;;6.40;90.70;;;;;;5012691;28;20496;-65
2022/11/17 09:05:16;;;;;;;6.15;4.90;;;;;;;;;;5013481;28;20104;-66
2022/11/17 09:07:42;;;;;;;6.55;5.07;;;6.90;96.80;;;;;;5013317;28;20050;-66
2022/11/17 09:10:10;;;;;;;6.55;4.97;;;4.90;96.20;;;;;;5012984;28;20434;-66
2022/11/17 09:12:37;;;;;;;6.75;5.15;;;6.60;96.70;;;;;;5013570;28;20460;-66
2022/11/17 09:15:04;;;;;;;6.07;4.60;;;6.00;96.60;;;;;;5011660;28;20053;-66
2022/11/17 09:17:31;;;;;;;6.90;4.70;;;6.30;96.60;;;;;;5013252;28;20058;-66
2022/11/17 09:19:59;;;;;;;6.25;4.63;;;6.40;94.70;;;;;;5012878;28;20137;-66
2022/11/17 09:22:26;;;;;;;6.15;4.78;;;6.20;92.80;;;;;;4969029;28;20116;-66
2022/11/17 09:24:53;;;;;;;7.15;5.45;;;;;;;;;;4955270;28;20054;-72
2022/11/17 09:27:20;;;;;;;7.43;5.95;;;;;;;;;;4995404;28;20173;-71
2022/11/17 09:29:47;;;;;;;8.38;5.80;;;;;;;;;;5018120;28;20057;-72
2022/11/17 09:32:15;;;;;;;7.10;5.78;;;;;;;;;;5031173;28;20053;-71
2022/11/17 09:34:42;;;;;;;9.40;5.80;;;;;;;;;;5011300;28;63452;-71
2022/11/17 09:37:10;;;;;;;7.82;5.85;;;6.30;94.00;;;;;;4942845;28;22293;-71
2022/11/17 09:39:37;;;;;;;7.45;5.93;;;;;;;;;;4899186;28;20159;-72
2022/11/17 09:42:04;;;;;;;7.55;5.85;;;6.10;98.20;;;;;;5027560;28;20075;-71
2022/11/17 09:44:38;;;;;;;8.15;5.97;;;6.10;88.70;;;;;;4954541;28;71343;-71
2022/11/17 09:47:10;;;;;;;8.10;5.80;;;6.10;88.80;;;;;;4988096;28;20063;-71
2022/11/17 09:49:42;;;;;;;7.45;5.70;;;6.10;88.70;;;;;;4996326;28;20457;-71
2022/11/17 09:52:15;;;;;;;7.28;5.57;;;6.10;88.80;;;;;;5027622;28;20075;-72
2022/11/17 09:54:43;;;;;;;8.82;6.22;;;6.40;97.20;;;;;;5012561;28;20104;-72
2022/11/17 09:57:17;;;;;;;7.55;6.15;;;6.10;88.70;;;;;;4899852;28;83233;-72
2022/11/17 09:59:44;;;;;;;8.10;6.10;;;;;;;;;;4955280;28;20049;-71
2022/11/17 10:02:11;;;;;;;7.90;6.30;;;;;;;;;;5024319;28;20050;-73
2022/11/17 10:04:38;;;;;;;8.65;6.30;;;;;;;;;;5030697;28;20057;-72
2022/11/17 10:07:05;;;;;;;9.48;6.20;;;6.10;97.10;;;;;;5031280;28;20046;-73
2022/11/17 10:09:36;;;;;;;6.65;5.55;;;6.10;88.70;;;;;;5031930;28;20064;-72
2022/11/17 10:12:12;;;;;;;7.30;5.85;;;6.10;97.00;;;;;;5030558;28;20077;-72
2022/11/17 10:14:39;;;;;;;7.60;5.82;;;6.20;96.90;;;;;;5015762;28;20060;-72
2022/11/17 10:17:07;;;;;;;8.32;5.95;;;;;;;;;;5031201;28;20049;-71
2022/11/17 10:19:34;;;;;;;8.50;6.00;;;;;;;;;;5029831;28;20501;-72
2022/11/17 10:22:18;;;;;;;8.23;6.00;;;6.00;88.70;;;;;;5031521;28;20049;-70
2022/11/17 10:24:49;;;;;;;7.43;5.78;;;6.10;88.70;;;;;;5031354;28;20079;-71
2022/11/17 10:27:19;;;;;;;7.57;6.13;;;6.00;88.60;;;;;;5030774;28;20133;-73
2022/11/17 10:29:56;;;;;;;8.27;6.20;;;6.10;88.70;;;;;;5030638;28;20067;-73
2022/11/17 10:32:23;;;;;;;8.15;6.25;;;6.20;96.90;;;;;;5030539;28;20048;-72
2022/11/17 10:34:50;;;;;;;8.68;6.43;;;6.40;97.00;;;;;;5029950;28;20050;-72
2022/11/17 10:37:28;;;;;;;10.07;6.70;;;6.10;96.30;;;;;;5031599;28;20141;-72
2022/11/17 10:40:24;;;;;;;7.45;6.18;;;6.00;88.80;;;;;;5028971;28;20088;-70
2022/11/17 10:42:57;;;;;;;8.52;6.63;;;6.30;97.00;;;;;;4996653;28;20063;-72
2022/11/17 10:45:24;;;;;;;9.25;7.15;;;6.30;97.00;;;;;;5030365;28;20057;-74
2022/11/17 10:47:51;;;;;;;8.60;6.93;;;;;;;;;;5031351;28;20049;-72
2022/11/17 10:50:21;;;;;;;8.93;7.00;;;6.10;89.00;;;;;;5029607;28;20064;-71
2022/11/17 10:52:48;;;;;;;8.55;6.95;;;;;;;;;;5031302;28;20053;-71
2022/11/17 10:55:19;;;;;;;8.73;6.82;;;6.10;95.30;;;;;;5029810;28;20063;-71
2022/11/17 10:57:48;;;;;;;11.55;7.10;;;6.50;90.80;;;;;;5030003;28;20064;-71
2022/11/17 11:00:23;;;;;;;9.50;7.43;;;6.30;90.80;;;;;;5030464;28;20057;-72
2022/11/17 11:02:50;;;;;;;;;;;6.20;94.40;;;;;;5030442;28;20055;-72
2022/11/17 11:05:18;;;;;;;9.07;7.07;;;5.80;96.90;;;;;;5046077;28;20034;-72
2022/11/17 11:07:45;;;;;;;10.23;7.00;;;;;;;;;;5029796;28;20529;-71
2022/11/17 11:10:14;;;;;;;10.40;7.38;;;6.30;94.20;;;;;;5029677;28;20568;-73
2022/11/17 11:12:43;;;;;;;8.57;7.38;;;6.10;89.10;;;;;;5029994;28;20141;-73
2022/11/17 11:15:14;;;;;;;10.90;7.65;;;5.30;88.60;;;;;;5029245;28;20406;-71
2022/11/17 11:17:40;;;;;;;10.65;8.10;;;6.30;97.50;;;;;;5030876;28;20136;-72
2022/11/17 11:20:12;;;;;;;9.55;7.40;;;6.10;93.50;;;;;;5030417;28;20045;-70
2022/11/17 11:22:43;;;;;;;9.07;7.30;;;6.30;97.00;;;;;;5029716;28;20057;-70
2022/11/17 11:25:17;;;;;;;9.77;7.70;;;6.20;89.20;;;;;;5029404;28;20200;-72
2022/11/17 11:28:11;;;;;;;9.07;6.60;;;6.90;91.10;;;;;;5030564;28;20055;-71
2022/11/17 11:30:42;;;;;;;10.18;7.88;;;6.20;89.20;;;;;;5030292;28;20060;-72
2022/11/17 11:33:22;;;;;;;11.70;7.90;;;6.50;97.00;;;;;;5029263;28;20059;-71
2022/11/17 11:35:57;;;;;;;9.60;7.50;;;6.20;96.80;;;;;;5029623;28;20053;-71
2022/11/17 11:38:43;;;;;;;9.77;7.63;;;6.40;97.00;;;;;;5031871;28;20061;-71
2022/11/17 11:41:18;;;;;;;10.20;7.38;;;6.30;89.20;;;;;;5032485;28;20242;-71
2022/11/17 11:43:48;;;;;;;;;;;6.30;89.70;;;;;;5034314;28;20053;-71
2022/11/17 11:46:16;;;;;;;10.25;7.72;;;5.90;89.90;;;;;;5034626;28;19921;-71
2022/11/17 11:48:43;;;;;;;11.88;8.10;;;6.30;96.80;;;;;;5033584;28;20053;-72
2022/11/17 11:51:12;;;;;;;11.10;7.65;;;6.40;89.20;;;;;;5032690;28;20068;-73
2022/11/17 11:53:44;;;;;;;9.77;7.78;;;6.00;96.60;;;;;;5034987;28;20071;-71
2022/11/17 11:56:18;;;;;;;11.02;8.05;;;6.30;89.10;;;;;;5033630;28;20056;-74
2022/11/17 11:58:48;;;;;;;10.88;7.75;;;6.30;96.10;;;;;;5034400;28;20050;-71
2022/11/17 12:01:17;;;;;;;9.27;7.18;;;6.50;95.00;;;;;;5032508;28;20076;-71
2022/11/17 12:03:48;;;;;;;10.50;7.47;;;6.40;89.40;;;;;;5033257;28;20081;-71
2022/11/17 12:09:14;;;;;;;11.68;7.95;;;6.40;96.80;;;;;;5034318;28;20378;-71
2022/11/17 12:14:25;;;;;;;8.23;6.88;;;;;;;;;;5028096;28;20045;-71
2022/11/17 12:17:00;;;;;;;10.25;7.03;;;6.30;96.90;;;;;;5013654;28;20050;-71
2022/11/17 12:19:49;;;;;;;9.30;7.13;;;6.30;89.30;;;;;;5013711;28;20053;-71
2022/11/17 12:22:25;;;;;;;9.15;6.82;;;6.20;97.00;;;;;;5014221;28;20522;-73
2022/11/17 12:24:57;;;;;;;9.18;7.20;;;6.30;89.50;;;;;;5014088;28;20054;-72
2022/11/17 12:27:31;;;;;;;10.25;7.22;;;6.70;97.20;;;;;;5015178;28;20056;-72
2022/11/17 12:30:01;;;;;;;9.38;6.88;;;6.40;89.70;;;;;;5013415;28;20053;-70
2022/11/17 12:32:52;;;;;;;9.50;7.40;;;6.40;89.60;;;;;;5014491;28;20058;-72
2022/11/17 12:35:26;;;;;;;9.57;7.40;;;6.50;97.00;;;;;;5013982;28;20061;-73
2022/11/17 12:38:22;;;;;;;9.10;7.00;;;6.40;89.70;;;;;;5013961;28;20060;-72
2022/11/17 12:40:50;;;;;;;9.05;7.05;;;;;;;;;;5000237;28;20064;-71
2022/11/17 12:43:20;;;;;;;8.50;7.07;;;6.50;96.70;;;;;;5014709;28;20056;-72
2022/11/17 12:45:59;;;;;;;9.15;6.93;;;6.50;91.90;;;;;;5014610;28;20156;-71
2022/11/17 12:48:34;;;;;;;10.10;6.55;;;6.40;90.30;;;;;;4334045;28;10001070;-70
2022/11/17 12:51:07;;;;;;;8.63;6.78;;;6.40;89.70;;;;;;4945572;28;63444;-70
2022/11/17 12:53:52;;;;;;;9.13;6.80;;;6.90;97.00;;;;;;5012589;28;20136;-72
2022/11/17 12:56:37;;;;;;;7.97;6.13;;;6.50;89.80;;;;;;4903227;28;61139;-71
2022/11/17 12:59:40;;;;;;;7.50;6.47;;;6.60;96.90;;;;;;4999858;28;20068;-72
2022/11/17 13:02:18;;;;;;;8.93;6.40;;;6.60;96.50;;;;;;5019087;28;20058;-71
2022/11/17 13:04:47;;;;;;;8.38;6.43;;;6.50;89.80;;;;;;5032833;28;20054;-71
2022/11/17 13:07:18;;;;;;;7.30;6.03;;;6.50;96.90;;;;;;5032895;28;20055;-71
2022/11/17 13:09:45;;;;;;;7.25;5.95;;;;;;;;;;5032334;28;20054;-71
2022/11/17 13:12:12;;;;;;;8.15;6.50;;;7.00;97.00;;;;;;5033033;28;20045;-71
2022/11/17 13:14:51;;;;;;;7.20;6.03;;;6.50;90.00;;;;;;5032817;28;20057;-72
2022/11/17 13:17:18;;;;;;;8.18;6.07;;;6.50;96.90;;;;;;5033764;28;20041;-72
2022/11/17 13:19:46;;;;;;;7.72;6.40;;;6.60;91.30;;;;;;5033487;28;20049;-72
2022/11/17 13:22:14;;;;;;;6.72;5.90;;;6.30;94.20;;;;;;5032113;28;20057;-72
2022/11/17 13:24:42;;;;;;;8.43;6.20;;;6.60;90.00;;;;;;5016234;28;20071;-70
2022/11/17 13:27:17;;;;;;;8.68;6.80;;;6.60;90.00;;;;;;5032725;28;20045;-71
2022/11/17 13:29:44;;;;;;;7.38;6.20;;;6.50;96.90;;;;;;5031906;28;20050;-71
2022/11/17 13:32:19;;;;;;;6.57;5.80;;;6.70;97.00;;;;;;5033353;28;20049;-71
2022/11/17 13:34:51;;;;;;;6.47;5.63;;;6.50;90.00;;;;;;5032229;28;20091;-72
2022/11/17 13:37:19;;;;;;;7.57;6.05;;;6.50;90.00;;;;;;5033516;28;20563;-70
2022/11/17 13:40:00;;;;;;;7.68;6.18;;;6.90;95.40;;;;;;5033093;28;20054;-71
2022/11/17 13:42:30;;;;;;;7.07;5.47;;;6.60;93.80;;;;;;5032145;28;20060;-71
2022/11/17 13:44:58;;;;;;;7.10;5.72;;;6.70;96.90;;;;;;5032286;28;20053;-70
2022/11/17 13:47:40;;;;;;;6.80;5.40;;;6.40;96.80;;;;;;5031864;28;20053;-70
2022/11/17 13:50:39;;;;;;;7.07;5.78;;;6.50;95.50;;;;;;5031216;28;20057;-71
2022/11/17 13:53:17;;;;;;;6.18;5.45;;;6.50;90.00;;;;;;4972100;28;20046;-72
2022/11/17 13:55:44;;;;;;;7.05;5.22;;;6.60;94.70;;;;;;5023892;28;20505;-71
2022/11/17 13:58:21;;;;;;;7.30;5.80;;;6.40;95.80;;;;;;5031837;28;20056;-72
2022/11/17 14:00:50;;;;;;;6.03;5.03;;;6.50;96.70;;;;;;5030804;28;20560;-72